createdAt,value
2023-01-25T00:01:06.693Z,-1.00
2023-01-25T00:06:01.981Z,-1.10
2023-01-25T00:08:29.319Z,-1.00
2023-01-25T00:13:26.421Z,-1.00
2023-01-25T00:15:53.878Z,-0.80
2023-01-25T00:18:21.412Z,-1.20
2023-01-25T00:20:48.883Z,-0.70
2023-01-25T00:23:16.097Z,-0.90
2023-01-25T00:28:11.237Z,-1.00
2023-01-25T00:30:38.557Z,-0.80
2023-01-25T00:33:17.551Z,-1.20
2023-01-25T00:35:45.473Z,-0.90
2023-01-25T00:38:30.676Z,-1.20
2023-01-25T00:41:06.333Z,-0.90
2023-01-25T00:43:40.565Z,-1.00
2023-01-25T00:46:26.194Z,-1.10
2023-01-25T00:48:57.722Z,0.10
2023-01-25T00:51:25.876Z,-1.00
2023-01-25T00:53:53.505Z,-1.10
2023-01-25T00:56:21.123Z,-1.10
2023-01-25T00:58:48.587Z,-1.70
2023-01-25T01:01:18.811Z,-1.50
2023-01-25T01:04:26.851Z,-1.60
2023-01-25T01:06:56.104Z,-1.50
2023-01-25T01:12:52.426Z,-1.60
2023-01-25T01:15:19.929Z,-1.00
2023-01-25T01:17:47.578Z,-1.60
2023-01-25T01:20:14.786Z,-1.70
2023-01-25T01:22:42.566Z,-1.30
2023-01-25T01:25:10.886Z,-1.10
2023-01-25T01:27:38.189Z,-1.20
2023-01-25T01:30:06.430Z,-0.90
2023-01-25T01:32:34.723Z,-1.40
2023-01-25T01:35:02.716Z,-1.30
2023-01-25T01:37:30.142Z,-1.10
2023-01-25T01:39:57.136Z,-1.40
2023-01-25T01:42:24.715Z,-1.20
2023-01-25T01:44:54.241Z,0.00
2023-01-25T01:50:02.059Z,-1.20
2023-01-25T01:52:36.967Z,-1.20
2023-01-25T01:55:11.748Z,-1.10
2023-01-25T01:57:47.865Z,-1.60
2023-01-25T02:00:22.992Z,-0.90
2023-01-25T02:02:51.409Z,-1.10
2023-01-25T02:05:29.824Z,-1.10
2023-01-25T02:07:58.264Z,-1.20
2023-01-25T02:10:27.085Z,-1.00
2023-01-25T02:12:57.701Z,-1.30
2023-01-25T02:15:32.183Z,-0.80
2023-01-25T02:17:59.994Z,-0.80
2023-01-25T02:20:39.698Z,-0.70
2023-01-25T02:23:24.948Z,-0.90
2023-01-25T02:28:41.301Z,-1.00
2023-01-25T02:31:10.083Z,-0.60
2023-01-25T02:33:37.859Z,-1.20
2023-01-25T02:36:08.060Z,-1.00
2023-01-25T02:38:39.747Z,-0.70
2023-01-25T02:41:20.615Z,-1.20
2023-01-25T02:43:49.034Z,-1.00
2023-01-25T02:46:27.894Z,-0.90
2023-01-25T02:48:56.829Z,-0.70
2023-01-25T02:51:26.428Z,0.20
2023-01-25T02:53:56.233Z,-0.90
2023-01-25T02:56:24.347Z,-1.00
2023-01-25T02:58:52.331Z,-0.30
2023-01-25T03:01:20.805Z,-0.80
2023-01-25T03:06:17.310Z,-0.80
2023-01-25T03:08:44.996Z,-0.60
2023-01-25T03:11:14.338Z,-1.10
2023-01-25T03:13:43.345Z,-0.30
2023-01-25T03:16:13.177Z,-0.90
2023-01-25T03:18:43.787Z,-0.50
2023-01-25T03:21:17.221Z,-0.70
2023-01-25T03:23:47.425Z,0.20
2023-01-25T03:26:22.398Z,-1.00
2023-01-25T03:29:03.537Z,-1.40
2023-01-25T03:31:30.850Z,-1.20
2023-01-25T03:33:58.237Z,-1.10
2023-01-25T03:36:30.714Z,-1.80
2023-01-25T03:38:58.099Z,-1.60
2023-01-25T03:46:25.635Z,-0.70
2023-01-25T03:48:55.274Z,-0.80
2023-01-25T03:51:22.503Z,-1.20
2023-01-25T03:53:49.828Z,-0.90
2023-01-25T03:56:20.403Z,-0.90
2023-01-25T03:59:12.620Z,-0.50
2023-01-25T04:04:08.521Z,-1.00
2023-01-25T04:06:38.366Z,-0.90
2023-01-25T04:09:06.984Z,-0.90
2023-01-25T04:11:39.630Z,-0.60
2023-01-25T04:22:09.354Z,-1.00
2023-01-25T04:24:38.847Z,-1.00
2023-01-25T04:27:06.101Z,-0.60
2023-01-25T04:29:41.927Z,-1.00
2023-01-25T04:37:15.554Z,-0.70
2023-01-25T04:39:53.688Z,-0.90
2023-01-25T04:42:21.556Z,-0.60
2023-01-25T04:44:53.149Z,-0.50
2023-01-25T04:49:48.865Z,-0.60
2023-01-25T04:52:19.652Z,-0.50
2023-01-25T04:54:47.341Z,-0.80
2023-01-25T04:57:14.538Z,-0.90
2023-01-25T05:04:49.819Z,-0.90
2023-01-25T05:07:19.138Z,-0.50
2023-01-25T05:15:04.108Z,-0.40
2023-01-25T05:17:31.579Z,-0.60
2023-01-25T05:22:48.154Z,-0.70
2023-01-25T05:25:34.946Z,-0.70
2023-01-25T05:28:06.773Z,-0.70
2023-01-25T05:31:03.143Z,-0.70
2023-01-25T05:33:31.839Z,-0.70
2023-01-25T05:35:59.463Z,-0.40
2023-01-25T05:38:31.619Z,-0.60
2023-01-25T05:40:59.980Z,-0.60
2023-01-25T05:46:01.532Z,-0.50
2023-01-25T05:50:58.767Z,-0.70
2023-01-25T05:53:29.408Z,-0.60
2023-01-25T05:58:25.823Z,-0.70
2023-01-25T06:00:55.748Z,-0.50
2023-01-25T06:03:35.148Z,0.00
2023-01-25T06:08:32.791Z,-0.70
2023-01-25T06:11:05.940Z,-0.60
2023-01-25T06:13:33.377Z,-0.50
2023-01-25T06:16:01.095Z,-0.40
2023-01-25T06:18:46.018Z,-1.40
2023-01-25T06:21:35.344Z,-0.50
2023-01-25T06:24:05.979Z,-0.20
2023-01-25T06:26:33.901Z,-0.70
2023-01-25T06:31:30.437Z,-1.20
2023-01-25T06:34:01.110Z,-0.60
2023-01-25T06:36:32.619Z,-0.60
2023-01-25T06:38:59.728Z,-0.40
2023-01-25T06:41:27.243Z,-0.50
2023-01-25T06:43:55.867Z,-0.40
2023-01-25T06:46:24.822Z,-0.60
2023-01-25T06:48:51.996Z,-0.70
2023-01-25T06:51:19.586Z,-1.00
2023-01-25T06:53:47.653Z,-0.50
2023-01-25T06:56:21.646Z,-0.50
2023-01-25T06:58:50.538Z,-0.50
2023-01-25T07:01:27.666Z,-0.60
2023-01-25T07:03:57.136Z,-0.50
2023-01-25T07:06:26.126Z,-0.50
2023-01-25T07:08:53.223Z,-0.50
2023-01-25T07:11:20.569Z,-0.50
2023-01-25T07:13:48.754Z,-0.50
2023-01-25T07:16:19.024Z,-0.50
2023-01-25T07:18:46.766Z,-0.40
2023-01-25T07:21:22.313Z,-0.40
2023-01-25T07:23:50.845Z,-0.30
2023-01-25T07:26:25.203Z,-0.30
2023-01-25T07:28:53.556Z,-0.30
2023-01-25T07:31:21.492Z,-0.20
2023-01-25T07:33:54.578Z,-0.30
2023-01-25T07:36:23.129Z,-0.20
2023-01-25T07:38:54.921Z,-0.20
2023-01-25T07:41:23.421Z,-0.20
2023-01-25T07:43:52.390Z,-0.20
2023-01-25T07:46:34.064Z,-0.20
2023-01-25T07:49:01.065Z,-0.10
2023-01-25T07:51:30.782Z,-0.10
2023-01-25T07:54:00.525Z,-0.10
2023-01-25T07:56:30.418Z,0.00
2023-01-25T07:58:59.411Z,0.00
2023-01-25T08:01:28.468Z,0.00
2023-01-25T08:03:56.573Z,0.00
2023-01-25T08:06:27.508Z,0.00
2023-01-25T08:08:55.584Z,0.10
2023-01-25T08:11:26.527Z,0.10
2023-01-25T08:13:56.012Z,0.10
2023-01-25T08:16:28.215Z,0.20
2023-01-25T08:18:57.422Z,0.20
2023-01-25T08:21:29.154Z,0.20
2023-01-25T08:24:00.733Z,0.30
2023-01-25T08:26:29.072Z,0.30
2023-01-25T08:28:57.946Z,0.40
2023-01-25T08:31:28.562Z,0.40
2023-01-25T08:33:56.498Z,0.50
2023-01-25T08:36:24.433Z,0.50
2023-01-25T08:38:57.156Z,0.40
2023-01-25T08:41:26.064Z,0.50
2023-01-25T08:43:56.452Z,0.50
2023-01-25T08:46:25.971Z,0.50
2023-01-25T08:48:57.101Z,0.60
2023-01-25T08:51:25.773Z,0.70
2023-01-25T08:53:53.206Z,0.80
2023-01-25T08:56:21.081Z,0.80
2023-01-25T08:58:49.897Z,0.90
2023-01-25T09:01:19.599Z,0.90
2023-01-25T09:03:48.820Z,0.90
2023-01-25T09:06:19.788Z,1.00
2023-01-25T09:08:47.536Z,1.00
2023-01-25T09:11:20.803Z,1.00
2023-01-25T09:13:52.093Z,1.00
2023-01-25T09:16:30.665Z,1.00
2023-01-25T09:19:03.100Z,0.90
2023-01-25T09:21:31.738Z,0.90
2023-01-25T09:24:07.520Z,1.00
2023-01-25T09:26:37.985Z,1.00
2023-01-25T09:29:05.490Z,1.10
2023-01-25T09:31:33.578Z,1.10
2023-01-25T09:34:15.023Z,1.10
2023-01-25T09:36:42.557Z,1.10
2023-01-25T09:39:14.958Z,1.20
2023-01-25T09:42:14.913Z,1.30
2023-01-25T09:45:10.617Z,1.40
2023-01-25T09:47:57.502Z,1.40
2023-01-25T09:51:03.763Z,1.50
2023-01-25T09:53:39.018Z,1.70
2023-01-25T09:56:26.849Z,1.70
2023-01-25T09:58:58.791Z,1.90
2023-01-25T10:01:44.511Z,2.00
2023-01-25T10:04:18.967Z,2.20
2023-01-25T10:07:01.400Z,2.10
2023-01-25T10:09:45.048Z,2.10
2023-01-25T10:12:23.636Z,2.10
2023-01-25T10:14:51.952Z,2.00
2023-01-25T10:17:38.585Z,2.10
2023-01-25T10:20:24.167Z,2.10
2023-01-25T10:23:25.751Z,2.10
2023-01-25T10:26:01.423Z,2.20
2023-01-25T10:28:46.611Z,2.10
2023-01-25T10:31:18.791Z,2.10
2023-01-25T10:33:47.793Z,2.10
2023-01-25T10:36:18.144Z,2.10
2023-01-25T10:38:47.599Z,2.10
2023-01-25T10:41:26.996Z,2.00
2023-01-25T10:44:13.222Z,2.10
2023-01-25T10:46:47.350Z,2.10
2023-01-25T10:49:22.796Z,2.00
2023-01-25T10:51:50.151Z,2.00
2023-01-25T10:54:17.448Z,1.80
2023-01-25T10:56:48.772Z,1.80
2023-01-25T10:59:23.894Z,1.70
2023-01-25T11:01:51.260Z,1.70
2023-01-25T11:04:36.167Z,1.70
2023-01-25T11:07:05.913Z,1.70
2023-01-25T11:09:38.896Z,1.70
2023-01-25T11:12:18.970Z,1.70
2023-01-25T11:14:50.856Z,1.70
2023-01-25T11:17:31.429Z,1.70
2023-01-25T11:20:24.694Z,1.70
2023-01-25T11:22:57.468Z,1.70
2023-01-25T11:25:25.857Z,1.80
2023-01-25T11:28:13.221Z,1.80
2023-01-25T11:30:40.371Z,1.90
2023-01-25T11:33:15.035Z,1.90
2023-01-25T11:36:06.277Z,1.80
2023-01-25T11:38:33.876Z,1.80
2023-01-25T11:41:20.045Z,1.80
2023-01-25T11:43:56.750Z,1.70
2023-01-25T11:46:45.932Z,1.70
2023-01-25T11:49:34.393Z,1.70
2023-01-25T11:52:01.384Z,1.70
2023-01-25T11:54:47.854Z,1.70
2023-01-25T11:57:35.860Z,1.70
2023-01-25T12:00:06.138Z,1.60
2023-01-25T12:02:46.094Z,1.50
2023-01-25T12:05:22.657Z,1.50
2023-01-25T12:08:04.403Z,1.60
2023-01-25T12:10:59.528Z,1.60
2023-01-25T12:13:42.271Z,1.50
2023-01-25T12:16:33.485Z,1.50
2023-01-25T12:19:36.017Z,1.60
2023-01-25T12:22:24.800Z,1.60
2023-01-25T12:25:28.604Z,1.60
2023-01-25T12:28:16.706Z,1.60
2023-01-25T12:31:14.653Z,1.50
2023-01-25T12:34:14.197Z,1.50
2023-01-25T12:36:45.376Z,1.50
2023-01-25T12:39:24.678Z,1.40
2023-01-25T12:42:19.598Z,1.40
2023-01-25T12:44:58.341Z,1.40
2023-01-25T12:47:48.390Z,1.40
2023-01-25T12:50:21.712Z,1.40
2023-01-25T12:53:01.874Z,1.40
2023-01-25T12:55:29.900Z,1.30
2023-01-25T12:58:06.949Z,1.40
2023-01-25T13:00:40.862Z,1.30
2023-01-25T13:03:25.355Z,1.40
2023-01-25T13:06:26.414Z,1.40
2023-01-25T13:08:53.408Z,1.40
2023-01-25T13:11:20.764Z,1.40
2023-01-25T13:13:47.958Z,1.40
2023-01-25T13:16:30.390Z,1.40
2023-01-25T13:18:58.928Z,1.50
2023-01-25T13:21:40.280Z,1.40
2023-01-25T13:24:13.996Z,1.50
2023-01-25T13:26:48.950Z,1.50
2023-01-25T13:29:38.282Z,1.50
2023-01-25T13:32:24.722Z,1.60
2023-01-25T13:34:54.936Z,1.60
2023-01-25T13:37:25.145Z,1.60
2023-01-25T13:40:30.453Z,1.50
2023-01-25T13:43:13.212Z,1.50
2023-01-25T13:45:42.711Z,1.50
2023-01-25T13:48:17.629Z,1.50
2023-01-25T13:50:47.931Z,1.50
2023-01-25T13:53:15.618Z,1.50
2023-01-25T13:55:53.322Z,1.50
2023-01-25T13:58:36.314Z,1.40
2023-01-25T14:01:08.223Z,1.40
2023-01-25T14:03:41.902Z,1.40
2023-01-25T14:06:25.508Z,1.40
2023-01-25T14:08:55.745Z,1.30
2023-01-25T14:11:28.933Z,1.20
2023-01-25T14:14:16.859Z,1.20
2023-01-25T14:16:44.520Z,1.20
2023-01-25T14:19:22.311Z,1.20
2023-01-25T14:21:49.940Z,1.10
2023-01-25T14:24:19.260Z,1.10
2023-01-25T14:26:47.618Z,1.10
2023-01-25T14:29:35.162Z,1.10
2023-01-25T14:32:03.508Z,1.10
2023-01-25T14:34:30.936Z,1.10
2023-01-25T14:37:18.271Z,1.10
2023-01-25T14:39:47.217Z,1.10
2023-01-25T14:42:16.259Z,1.10
2023-01-25T14:44:45.249Z,1.00
2023-01-25T14:47:32.350Z,1.00
2023-01-25T14:50:30.742Z,1.00
2023-01-25T14:52:59.943Z,1.00
2023-01-25T14:55:27.620Z,1.00
2023-01-25T14:58:00.170Z,1.00
2023-01-25T15:00:32.066Z,1.00
2023-01-25T15:03:07.761Z,0.90
2023-01-25T15:05:37.351Z,0.80
2023-01-25T15:08:07.373Z,0.80
2023-01-25T15:10:50.391Z,0.80
2023-01-25T15:13:17.519Z,0.80
2023-01-25T15:16:02.691Z,0.80
2023-01-25T15:18:48.589Z,0.80
2023-01-25T15:21:35.044Z,0.80
2023-01-25T15:24:13.671Z,0.80
2023-01-25T15:26:41.070Z,0.80
2023-01-25T15:29:16.985Z,0.80
2023-01-25T15:31:45.388Z,0.80
2023-01-25T15:34:19.352Z,0.80
2023-01-25T15:36:47.799Z,0.80
2023-01-25T15:39:17.027Z,0.80
2023-01-25T15:41:44.789Z,0.80
2023-01-25T15:44:12.207Z,0.80
2023-01-25T15:46:43.793Z,0.80
2023-01-25T15:49:17.544Z,0.80
2023-01-25T15:51:46.996Z,0.80
2023-01-25T15:54:16.128Z,0.80
2023-01-25T15:56:51.403Z,0.90
2023-01-25T15:59:19.760Z,0.80
2023-01-25T16:01:47.228Z,0.90
2023-01-25T16:04:14.536Z,0.80
2023-01-25T16:06:50.528Z,0.80
2023-01-25T16:09:21.625Z,0.80
2023-01-25T16:11:55.273Z,0.80
2023-01-25T16:14:31.998Z,0.80
2023-01-25T16:17:05.591Z,0.80
2023-01-25T16:19:33.573Z,0.70
2023-01-25T16:22:01.261Z,0.70
2023-01-25T16:24:28.472Z,0.70
2023-01-25T16:26:58.154Z,0.80
2023-01-25T16:29:25.700Z,0.70
2023-01-25T16:31:54.307Z,0.80
2023-01-25T16:34:22.356Z,0.70
2023-01-25T16:36:52.913Z,0.70
2023-01-25T16:39:25.392Z,0.70
2023-01-25T16:41:53.740Z,0.60
2023-01-25T16:44:23.733Z,0.60
2023-01-25T16:46:51.409Z,0.50
2023-01-25T16:49:30.520Z,0.50
2023-01-25T16:52:00.191Z,0.50
2023-01-25T16:54:27.558Z,0.50
2023-01-25T16:56:55.088Z,0.40
2023-01-25T16:59:23.650Z,0.50
2023-01-25T17:01:51.848Z,0.40
2023-01-25T17:04:19.625Z,0.50
2023-01-25T17:06:49.354Z,0.50
2023-01-25T17:09:24.770Z,0.60
2023-01-25T17:11:56.719Z,0.60
2023-01-25T17:14:26.561Z,0.60
2023-01-25T17:16:54.444Z,0.60
2023-01-25T17:19:21.560Z,0.60
2023-01-25T17:21:52.580Z,0.60
2023-01-25T17:24:21.627Z,0.60
2023-01-25T17:26:55.647Z,0.60
2023-01-25T17:29:22.839Z,0.60
2023-01-25T17:31:50.797Z,0.60
2023-01-25T17:34:18.963Z,0.60
2023-01-25T17:36:46.695Z,0.60
2023-01-25T17:39:15.697Z,0.70
2023-01-25T17:41:44.615Z,0.70
2023-01-25T17:44:12.737Z,0.70
2023-01-25T17:46:40.325Z,0.70
2023-01-25T17:49:12.216Z,0.60
2023-01-25T17:51:39.677Z,0.60
2023-01-25T17:54:06.977Z,0.60
2023-01-25T17:56:34.627Z,0.60
2023-01-25T17:59:02.576Z,0.50
2023-01-25T18:01:32.171Z,0.50
2023-01-25T18:04:00.625Z,0.50
2023-01-25T18:06:33.352Z,0.50
2023-01-25T18:09:02.353Z,0.50
2023-01-25T18:11:35.646Z,0.50
2023-01-25T18:14:08.221Z,0.40
2023-01-25T18:16:38.797Z,0.40
2023-01-25T18:19:07.083Z,0.50
2023-01-25T18:21:34.871Z,0.50
2023-01-25T18:24:22.295Z,0.50
2023-01-25T18:26:59.473Z,0.50
2023-01-25T18:29:37.677Z,0.50
2023-01-25T18:32:05.818Z,0.60
2023-01-25T18:34:33.530Z,0.60
2023-01-25T18:37:03.359Z,0.60
2023-01-25T18:39:30.465Z,0.60
2023-01-25T18:41:57.783Z,0.60
2023-01-25T18:44:26.897Z,0.60
2023-01-25T18:46:56.621Z,0.50
2023-01-25T18:49:23.803Z,0.60
2023-01-25T18:52:08.496Z,0.60
2023-01-25T18:54:37.928Z,0.50
2023-01-25T18:57:06.879Z,0.50
2023-01-25T18:59:34.164Z,0.40
2023-01-25T19:02:05.427Z,0.40
2023-01-25T19:04:32.619Z,0.50
2023-01-25T19:07:02.743Z,0.40
2023-01-25T19:09:31.610Z,0.50
2023-01-25T19:11:59.132Z,0.50
2023-01-25T19:14:26.450Z,0.50
2023-01-25T19:16:53.773Z,0.40
2023-01-25T19:19:21.617Z,0.40
2023-01-25T19:21:49.315Z,0.40
2023-01-25T19:24:19.427Z,0.40
2023-01-25T19:26:52.377Z,0.30
2023-01-25T19:29:19.731Z,0.30
2023-01-25T19:31:47.089Z,0.30
2023-01-25T19:34:14.447Z,0.30
2023-01-25T19:36:49.315Z,0.40
2023-01-25T19:39:17.504Z,0.40
2023-01-25T19:41:45.831Z,0.40
2023-01-25T19:44:14.540Z,0.40
2023-01-25T19:46:42.751Z,0.40
2023-01-25T19:49:11.777Z,0.30
2023-01-25T19:51:42.206Z,0.30
2023-01-25T19:54:16.730Z,0.20
2023-01-25T19:56:49.716Z,0.20
2023-01-25T19:59:22.122Z,0.20
2023-01-25T20:01:49.837Z,0.20
2023-01-25T20:04:20.534Z,0.20
2023-01-25T20:06:49.483Z,0.20
2023-01-25T20:09:18.800Z,0.20
2023-01-25T20:11:47.503Z,0.30
2023-01-25T20:14:15.080Z,0.30
2023-01-25T20:16:42.704Z,0.40
2023-01-25T20:19:12.363Z,0.40
2023-01-25T20:21:40.185Z,0.40
2023-01-25T20:24:10.660Z,0.50
2023-01-25T20:26:42.570Z,0.50
2023-01-25T20:29:12.254Z,0.40
2023-01-25T20:31:44.892Z,0.40
2023-01-25T20:34:20.631Z,0.30
2023-01-25T20:36:49.780Z,0.20
2023-01-25T20:39:19.519Z,0.20
2023-01-25T20:41:47.666Z,0.20
2023-01-25T20:44:17.166Z,0.20
2023-01-25T20:46:45.112Z,0.30
2023-01-25T20:49:17.978Z,0.30
2023-01-25T20:51:46.454Z,0.40
2023-01-25T20:54:14.348Z,0.40
2023-01-25T20:56:43.077Z,0.40
2023-01-25T20:59:12.123Z,0.30
2023-01-25T21:01:40.052Z,0.40
2023-01-25T21:04:09.615Z,0.40
2023-01-25T21:06:38.717Z,0.40
2023-01-25T21:09:06.260Z,0.40
2023-01-25T21:11:33.875Z,0.40
2023-01-25T21:14:03.625Z,0.50
2023-01-25T21:16:31.125Z,0.40
2023-01-25T21:19:00.306Z,0.40
2023-01-25T21:21:29.992Z,0.40
2023-01-25T21:24:00.224Z,0.40
2023-01-25T21:26:33.358Z,0.40
2023-01-25T21:29:01.753Z,0.40
2023-01-25T21:31:32.969Z,0.40
2023-01-25T21:34:01.604Z,0.40
2023-01-25T21:36:29.755Z,0.40
2023-01-25T21:38:58.096Z,0.50
2023-01-25T21:41:29.878Z,0.50
2023-01-25T21:44:17.364Z,0.50
2023-01-25T21:47:06.107Z,0.50
2023-01-25T21:49:51.283Z,0.50
2023-01-25T21:52:18.686Z,0.50
2023-01-25T21:54:45.812Z,0.50
2023-01-25T21:57:13.094Z,0.50
2023-01-25T21:59:41.341Z,0.50
2023-01-25T22:02:14.104Z,0.50
2023-01-25T22:04:41.469Z,0.50
2023-01-25T22:07:10.892Z,0.50
2023-01-25T22:09:38.015Z,1.10
2023-01-25T22:12:05.605Z,0.50
2023-01-25T22:14:32.867Z,0.50
2023-01-25T22:17:00.422Z,0.60
2023-01-25T22:19:27.503Z,0.60
2023-01-25T22:21:55.198Z,0.60
2023-01-25T22:24:22.467Z,0.60
2023-01-25T22:27:28.073Z,0.60
2023-01-25T22:29:55.150Z,0.70
2023-01-25T22:32:22.500Z,0.70
2023-01-25T22:34:49.619Z,0.70
2023-01-25T22:37:17.345Z,0.70
2023-01-25T22:39:45.546Z,0.80
2023-01-25T22:42:15.811Z,0.70
2023-01-25T22:44:42.923Z,0.80
2023-01-25T22:47:13.047Z,0.70
2023-01-25T22:49:42.484Z,0.70
2023-01-25T22:52:09.834Z,0.70
2023-01-25T22:54:37.241Z,0.70
2023-01-25T22:57:04.729Z,0.80
2023-01-25T22:59:31.731Z,0.80
2023-01-25T23:01:59.173Z,0.80
2023-01-25T23:04:26.400Z,0.70
2023-01-25T23:07:12.676Z,0.70
2023-01-25T23:09:40.750Z,0.70
2023-01-25T23:12:08.492Z,0.70
2023-01-25T23:14:54.118Z,0.70
2023-01-25T23:17:44.616Z,0.70
2023-01-25T23:20:12.952Z,0.70
2023-01-25T23:22:40.687Z,0.70
2023-01-25T23:25:08.941Z,0.70
2023-01-25T23:27:38.793Z,0.70
2023-01-25T23:30:07.337Z,0.70
2023-01-25T23:32:37.428Z,0.70
2023-01-25T23:35:05.336Z,0.70
2023-01-25T23:37:32.802Z,0.70
2023-01-25T23:39:59.851Z,0.70
2023-01-25T23:42:29.471Z,0.70
2023-01-25T23:44:56.783Z,0.70
2023-01-25T23:47:24.127Z,0.80
2023-01-25T23:49:51.201Z,0.70
2023-01-25T23:52:18.469Z,0.70
2023-01-25T23:54:45.648Z,0.70
2023-01-25T23:57:13.003Z,0.70
2023-01-25T23:59:40.572Z,0.70
